Terminal Aerodrome Forecast
Issued by NWS

Home | Current Version | Previous Version | Text Only | Print | Product List | Glossary On
Versions: 1 2 3 4 5 6 7 8 9 10 11 12 13 14 15
000
FTUS45 KPIH 242300
TAFSUN
TAF
KSUN 242323Z 2500/2524 31008KT 3/4SM -SN OVC006
     FM250300 32008KT 2SM -SN BR BKN015 OVC030
     FM250600 34011KT P6SM VCSH SCT025 BKN080
     FM251900 31012G20KT P6SM BKN080
      AMD LTD TO CLD VIS AND WIND 2506/2514=

USA.gov is the U.S. government's official web portal to all federal, state and local government web resources and services.